Time;durP1;ratioP1;P1;durP2;ratioP2;P2;SDS_P1;SDS_P2;PMS_P1;PMS_P2;Temp;Humidity;BMP_temperature;BMP_pressure;BME280_temperature;BME280_humidity;BME280_pressure;Samples;Min_cycle;Max_cycle;Signal;HPM_P1;HPM_P2
2022/06/09 00:01:45;;;;;;;;;;;14.10;99.90;;;;;;5009944;28;20346;-79
2022/06/09 00:04:30;;;;;;;;;;;14.10;99.90;;;;;;5023540;28;19923;-83
2022/06/09 00:07:02;;;;;;;;;;;14.20;99.90;;;;;;5015032;28;20385;-80
2022/06/09 00:09:34;;;;;;;;;;;14.20;99.90;;;;;;5020266;28;20431;-80
2022/06/09 00:12:00;;;;;;;;;;;14.10;99.90;;;;;;5029122;28;19924;-83
2022/06/09 00:14:26;;;;;;;;;;;14.10;99.90;;;;;;5019771;28;19921;-80
2022/06/09 00:16:52;;;;;;;;;;;14.10;99.90;;;;;;5028648;28;20000;-78
2022/06/09 00:19:18;;;;;;;;;;;14.10;99.90;;;;;;5034119;28;20365;-81
2022/06/09 00:21:44;;;;;;;;;;;14.10;99.90;;;;;;5063755;28;20003;-79
2022/06/09 00:24:09;;;;;;;;;;;14.10;99.90;;;;;;5018503;28;19956;-80
2022/06/09 00:26:35;;;;;;;;;;;14.10;99.90;;;;;;5015091;28;19920;-80
2022/06/09 00:29:01;;;;;;;;;;;14.10;99.90;;;;;;5057995;28;19916;-80
2022/06/09 00:31:27;;;;;;;;;;;14.10;99.90;;;;;;5042854;28;19916;-82
2022/06/09 00:33:53;;;;;;;;;;;14.10;99.90;;;;;;5036740;28;19959;-79
2022/06/09 00:36:18;;;;;;;;;;;14.10;99.90;;;;;;5020803;28;19952;-84
2022/06/09 00:38:44;;;;;;;;;;;14.10;99.90;;;;;;5019629;28;19939;-79
2022/06/09 00:41:10;;;;;;;;;;;14.10;99.90;;;;;;5027076;28;20297;-80
2022/06/09 00:43:36;;;;;;;;;;;14.10;99.90;;;;;;5036730;28;19916;-80
2022/06/09 00:46:05;;;;;;;;;;;14.10;99.90;;;;;;4984579;28;20234;-83
2022/06/09 00:48:36;;;;;;;;;;;14.10;99.90;;;;;;5001010;28;19929;-81
2022/06/09 00:51:31;;;;;;;;;;;14.10;99.90;;;;;;5016162;28;19925;-83
2022/06/09 00:54:12;;;;;;;;;;;14.10;99.90;;;;;;4998696;28;19926;-80
2022/06/09 00:56:40;;;;;;;;;;;14.20;99.90;;;;;;5018468;28;19936;-81
2022/06/09 00:59:06;;;;;;;;;;;14.20;99.90;;;;;;5027106;28;20296;-79
2022/06/09 01:01:33;;;;;;;;;;;14.20;99.90;;;;;;5021549;28;19921;-81
2022/06/09 01:04:01;;;;;;;;;;;14.20;99.90;;;;;;5027908;28;20285;-79
2022/06/09 01:06:33;;;;;;;;;;;14.20;99.90;;;;;;5018155;28;20365;-81
2022/06/09 01:09:01;;;;;;;;;;;14.20;99.90;;;;;;5000913;28;19944;-83
2022/06/09 01:11:27;;;;;;;;;;;14.10;99.90;;;;;;5021668;28;19939;-80
2022/06/09 01:13:55;;;;;;;;;;;14.10;99.90;;;;;;5009671;28;20383;-80
2022/06/09 01:16:24;;;;;;;;;;;14.10;99.90;;;;;;5003571;28;19924;-81
2022/06/09 01:19:13;;;;;;;;;;;14.00;99.90;;;;;;5027534;28;20301;-82
2022/06/09 01:21:42;;;;;;;;;;;14.10;99.90;;;;;;5019098;28;19947;-80
2022/06/09 01:24:13;;;;;;;;;;;14.00;99.90;;;;;;5028007;28;19956;-79
2022/06/09 01:26:49;;;;;;;;;;;14.00;99.90;;;;;;5035195;28;19925;-79
2022/06/09 01:29:23;;;;;;;;;;;14.00;99.90;;;;;;5040996;28;19986;-83
2022/06/09 01:31:52;;;;;;;;;;;14.00;99.90;;;;;;5004703;28;20318;-81
2022/06/09 01:34:36;;;;;;;;;;;14.00;99.90;;;;;;5018166;28;20011;-82
2022/06/09 01:37:06;;;;;;;;;;;14.00;99.90;;;;;;5034335;28;19924;-80
2022/06/09 01:39:43;;;;;;;;;;;14.00;99.90;;;;;;5016971;28;19917;-81
2022/06/09 01:42:22;;;;;;;;;;;14.00;99.90;;;;;;5035681;28;19917;-84
2022/06/09 01:44:48;;;;;;;;;;;13.90;99.90;;;;;;5008906;28;19917;-82
2022/06/09 01:47:15;;;;;;;;;;;14.00;99.90;;;;;;5001608;28;20296;-79
2022/06/09 01:49:40;;;;;;;;;;;13.90;99.90;;;;;;5025222;28;19920;-78
2022/06/09 01:52:06;;;;;;;;;;;13.90;99.90;;;;;;5042768;28;20006;-79
2022/06/09 01:54:34;;;;;;;;;;;13.90;99.90;;;;;;5004392;28;19920;-81
2022/06/09 01:57:04;;;;;;;;;;;13.90;99.90;;;;;;5034855;28;19917;-82
2022/06/09 01:59:33;;;;;;;;;;;13.90;99.90;;;;;;5018619;28;19924;-82
2022/06/09 02:02:09;;;;;;;;;;;13.90;99.90;;;;;;5018911;28;19940;-80
2022/06/09 02:04:37;;;;;;;;;;;13.90;99.90;;;;;;5022290;28;19955;-78
2022/06/09 02:07:04;;;;;;;;;;;13.90;99.90;;;;;;5050623;28;19925;-80
2022/06/09 02:09:31;;;;;;;;;;;13.90;99.90;;;;;;5048697;28;20342;-83
2022/06/09 02:11:57;;;;;;;;;;;13.90;99.90;;;;;;5006824;28;19995;-80
2022/06/09 02:14:25;;;;;;;;;;;13.90;99.90;;;;;;5001330;28;20329;-80
2022/06/09 02:16:51;;;;;;;;;;;13.90;99.90;;;;;;5015843;28;19917;-82
2022/06/09 02:19:17;;;;;;;;;;;13.90;99.90;;;;;;4998369;28;20396;-83
2022/06/09 02:21:42;;;;;;;;;;;13.80;99.90;;;;;;5049309;28;19920;-80
2022/06/09 02:24:08;;;;;;;;;;;13.80;99.90;;;;;;5048901;28;19925;-82
2022/06/09 02:26:34;;;;;;;;;;;13.80;99.90;;;;;;5032981;28;19921;-85
2022/06/09 02:29:00;;;;;;;;;;;13.70;99.90;;;;;;4979286;28;19917;-82
2022/06/09 02:31:26;;;;;;;;;;;13.60;99.90;;;;;;4997695;28;19917;-82
2022/06/09 02:33:52;;;;;;;;;;;13.60;99.90;;;;;;5057612;28;19920;-82
2022/06/09 02:36:18;;;;;;;;;;;13.60;99.90;;;;;;5034922;28;19924;-82
2022/06/09 02:38:44;;;;;;;;;;;13.60;99.90;;;;;;5014875;28;19925;-83
2022/06/09 02:41:10;;;;;;;;;;;13.60;99.90;;;;;;4998242;28;20286;-82
2022/06/09 02:43:35;;;;;;;;;;;13.50;99.90;;;;;;5048049;28;19917;-84
2022/06/09 02:46:01;;;;;;;;;;;13.50;99.90;;;;;;5057982;28;20355;-82
2022/06/09 02:48:27;;;;;;;;;;;13.50;99.90;;;;;;5000635;28;20289;-83
2022/06/09 02:50:53;;;;;;;;;;;13.60;99.90;;;;;;5036138;28;19921;-82
2022/06/09 02:53:19;;;;;;;;;;;13.60;99.90;;;;;;5005231;28;19921;-81
2022/06/09 02:55:45;;;;;;;;;;;13.60;99.90;;;;;;5036909;28;19923;-81
2022/06/09 02:58:11;;;;;;;;;;;13.60;99.90;;;;;;5021981;28;19917;-81
2022/06/09 03:00:36;;;;;;;;;;;13.60;99.90;;;;;;5056248;28;20330;-82
2022/06/09 03:03:03;;;;;;;;;;;13.60;99.90;;;;;;5019265;28;19974;-82
2022/06/09 03:05:30;;;;;;;;;;;13.60;99.90;;;;;;5026119;28;19932;-77
2022/06/09 03:07:56;;;;;;;;;;;13.60;99.90;;;;;;5014625;28;20776;-80
2022/06/09 03:10:22;;;;;;;;;;;13.60;99.90;;;;;;5014310;28;19968;-80
2022/06/09 03:12:47;;;;;;;;;;;13.50;99.90;;;;;;5000261;28;19971;-81
2022/06/09 03:15:14;;;;;;;;;;;13.50;99.90;;;;;;5009083;28;19921;-82
2022/06/09 03:17:39;;;;;;;;;;;13.50;99.90;;;;;;5027362;28;20331;-82
2022/06/09 03:20:07;;;;;;;;;;;13.50;99.90;;;;;;5026419;28;19966;-82
2022/06/09 03:22:33;;;;;;;;;;;13.50;99.90;;;;;;5034608;28;19924;-82
2022/06/09 03:24:59;;;;;;;;;;;13.50;99.90;;;;;;5049124;28;19920;-80
2022/06/09 03:27:24;;;;;;;;;;;13.50;99.90;;;;;;5061308;28;19921;-79
2022/06/09 03:29:50;;;;;;;;;;;13.50;99.90;;;;;;5016164;28;20003;-82
2022/06/09 03:32:16;;;;;;;;;;;13.50;99.90;;;;;;5007166;28;19923;-81
2022/06/09 03:34:41;;;;;;;;;;;13.50;99.90;;;;;;5060655;28;19921;-83
2022/06/09 03:37:07;;;;;;;;;;;13.50;99.90;;;;;;4998810;28;19917;-79
2022/06/09 03:39:33;;;;;;;;;;;13.40;99.90;;;;;;5017967;28;19927;-81
2022/06/09 03:41:58;;;;;;;;;;;13.40;99.90;;;;;;5014723;28;19917;-82
2022/06/09 03:44:24;;;;;;;;;;;13.40;99.90;;;;;;5046091;28;19917;-80
2022/06/09 03:46:50;;;;;;;;;;;13.40;99.90;;;;;;5019051;28;19921;-79
2022/06/09 03:49:15;;;;;;;;;;;13.40;99.90;;;;;;5022577;28;19921;-80
2022/06/09 03:51:41;;;;;;;;;;;13.40;99.90;;;;;;5037803;28;20422;-81
2022/06/09 03:54:07;;;;;;;;;;;13.40;99.90;;;;;;5002868;28;19917;-83
2022/06/09 03:56:33;;;;;;;;;;;13.40;99.90;;;;;;5014746;28;19921;-80
2022/06/09 03:58:59;;;;;;;;;;;13.40;99.90;;;;;;5053595;28;20277;-81
2022/06/09 04:01:24;;;;;;;;;;;13.40;99.90;;;;;;5031421;28;20038;-84
2022/06/09 04:03:50;;;;;;;;;;;13.50;99.90;;;;;;4999049;28;19917;-85
2022/06/09 04:06:18;;;;;;;;;;;13.50;99.90;;;;;;5050817;28;19924;-80
2022/06/09 04:08:44;;;;;;;;;;;13.60;99.90;;;;;;5009953;28;19921;-82
2022/06/09 04:11:10;;;;;;;;;;;13.60;99.90;;;;;;5032309;28;19917;-80
2022/06/09 04:13:36;;;;;;;;;;;13.60;99.90;;;;;;5038052;28;20354;-82
2022/06/09 04:16:04;;;;;;;;;;;13.70;99.90;;;;;;5036442;28;20455;-84
2022/06/09 04:18:30;;;;;;;;;;;13.70;99.90;;;;;;5019725;28;19916;-82
2022/06/09 04:20:57;;;;;;;;;;;13.70;99.90;;;;;;5004670;28;19916;-80
2022/06/09 04:23:25;;;;;;;;;;;13.80;99.90;;;;;;5019521;28;19955;-81
2022/06/09 04:25:50;;;;;;;;;;;13.80;99.90;;;;;;5009028;28;20402;-82
2022/06/09 04:28:18;;;;;;;;;;;13.80;99.90;;;;;;5003209;28;20004;-82
2022/06/09 04:30:44;;;;;;;;;;;13.90;99.90;;;;;;5014933;28;20369;-80
2022/06/09 04:33:10;;;;;;;;;;;13.90;99.90;;;;;;5020458;28;19917;-80
2022/06/09 04:35:36;;;;;;;;;;;13.90;99.90;;;;;;5017551;28;20320;-79
2022/06/09 04:38:01;;;;;;;;;;;14.00;99.90;;;;;;5050554;28;19962;-82
2022/06/09 04:40:45;;;;;;;;;;;14.00;99.90;;;;;;5009906;28;19920;-83
2022/06/09 04:43:11;;;;;;;;;;;14.00;99.90;;;;;;5014721;28;19966;-81
2022/06/09 04:45:38;;;;;;;;;;;14.00;99.90;;;;;;5032414;28;19921;-79
2022/06/09 04:48:04;;;;;;;;;;;14.10;99.90;;;;;;5002861;28;20212;-81
2022/06/09 04:50:30;;;;;;;;;;;14.00;99.90;;;;;;5016802;28;19924;-83
2022/06/09 04:52:57;;;;;;;;;;;14.00;99.90;;;;;;5021481;28;20348;-83
2022/06/09 04:55:22;;;;;;;;;;;14.00;99.90;;;;;;4994296;28;19924;-80
2022/06/09 04:57:48;;;;;;;;;;;13.90;99.90;;;;;;5033324;28;20294;-78
2022/06/09 05:00:14;;;;;;;;;;;14.00;99.90;;;;;;5010129;28;19931;-81
2022/06/09 05:02:40;;;;;;;;;;;14.00;99.90;;;;;;5031243;28;20251;-78
2022/06/09 05:05:06;;;;;;;;;;;14.00;99.90;;;;;;5026027;28;19925;-78
2022/06/09 05:07:32;;;;;;;;;;;14.10;99.90;;;;;;5017421;28;20298;-78
2022/06/09 05:09:58;;;;;;;;;;;14.10;99.90;;;;;;5024270;28;20007;-80
2022/06/09 05:12:23;;;;;;;;;;;14.20;99.90;;;;;;5003552;28;19943;-79
2022/06/09 05:14:49;;;;;;;;;;;14.20;99.90;;;;;;5029582;28;20060;-80
2022/06/09 05:17:15;;;;;;;;;;;14.20;99.90;;;;;;5019644;28;19917;-80
2022/06/09 05:19:40;;;;;;;;;;;14.10;99.90;;;;;;5014422;28;20000;-79
2022/06/09 05:22:06;;;;;;;;;;;14.20;99.90;;;;;;5049423;28;19974;-82
2022/06/09 05:24:31;;;;;;;;;;;14.20;99.90;;;;;;5003224;28;19917;-82
2022/06/09 05:26:57;;;;;;;;;;;14.20;99.90;;;;;;5043096;28;20349;-80
2022/06/09 05:29:23;;;;;;;;;;;14.30;99.90;;;;;;5034323;28;19921;-83
2022/06/09 05:31:48;;;;;;;;;;;14.30;99.90;;;;;;5028739;28;19924;-82
2022/06/09 05:34:14;;;;;;;;;;;14.40;99.90;;;;;;5011405;28;19961;-80
2022/06/09 05:36:39;;;;;;;;;;;14.40;99.90;;;;;;5013659;28;19923;-80
2022/06/09 05:44:51;;;;;;;;;;;14.50;99.90;;;;;;5026592;28;19925;-78
2022/06/09 05:47:21;;;;;;;;;;;14.50;99.90;;;;;;5044033;28;19921;-82
2022/06/09 05:49:47;;;;;;;;;;;14.60;99.90;;;;;;5014896;28;20377;-82
2022/06/09 05:52:13;;;;;;;;;;;14.70;99.90;;;;;;5056757;28;19917;-82
2022/06/09 05:54:39;;;;;;;;;;;14.80;99.90;;;;;;5015241;28;20366;-79
2022/06/09 05:57:05;;;;;;;;;;;14.80;99.90;;;;;;5022822;28;19974;-79
2022/06/09 05:59:30;;;;;;;;;;;14.80;99.90;;;;;;5029633;28;19928;-79
2022/06/09 06:01:56;;;;;;;;;;;15.00;99.90;;;;;;5012170;28;19917;-82
2022/06/09 06:04:22;;;;;;;;;;;15.00;99.90;;;;;;5025982;28;20106;-82
2022/06/09 06:06:47;;;;;;;;;;;15.00;99.90;;;;;;5031247;28;19928;-80
2022/06/09 06:09:14;;;;;;;;;;;15.10;99.90;;;;;;5004357;28;20357;-82
2022/06/09 06:11:41;;;;;;;;;;;15.10;99.90;;;;;;5001670;28;20263;-83
2022/06/09 06:14:08;;;;;;;;;;;15.10;99.90;;;;;;5020293;28;19919;-78
2022/06/09 06:16:34;;;;;;;;;;;15.30;99.90;;;;;;5008926;28;19967;-80
2022/06/09 06:18:59;;;;;;;;;;;15.50;99.90;;;;;;5011987;28;19917;-80
2022/06/09 06:21:25;;;;;;;;;;;15.50;99.90;;;;;;5015148;28;20389;-81
2022/06/09 06:23:51;;;;;;;;;;;15.50;99.90;;;;;;5022119;28;19960;-80
2022/06/09 06:26:17;;;;;;;;;;;15.50;99.90;;;;;;5012274;28;19925;-79
2022/06/09 06:28:43;;;;;;;;;;;15.50;99.90;;;;;;5024332;28;19921;-83
2022/06/09 06:31:08;;;;;;;;;;;15.40;99.90;;;;;;5022075;28;19976;-81
2022/06/09 06:33:34;;;;;;;;;;;15.40;99.90;;;;;;5011032;28;19957;-81
2022/06/09 06:36:00;;;;;;;;;;;15.40;99.90;;;;;;5014356;28;19917;-81
2022/06/09 06:38:25;;;;;;;;;;;15.50;99.90;;;;;;5025679;28;20406;-77
2022/06/09 06:40:51;;;;;;;;;;;15.50;99.90;;;;;;5012626;28;20282;-82
2022/06/09 06:43:16;;;;;;;;;;;15.50;99.90;;;;;;5012258;28;19925;-81
2022/06/09 06:45:42;;;;;;;;;;;15.60;99.90;;;;;;4979151;28;19925;-81
2022/06/09 06:48:08;;;;;;;;;;;15.60;99.90;;;;;;5015340;28;20377;-82
2022/06/09 06:50:33;;;;;;;;;;;15.70;99.90;;;;;;5011494;28;19925;-80
2022/06/09 06:52:59;;;;;;;;;;;15.80;99.90;;;;;;5032491;28;20326;-80
2022/06/09 06:55:25;;;;;;;;;;;15.90;99.90;;;;;;5033789;28;19928;-78
2022/06/09 06:57:50;;;;;;;;;;;15.90;99.90;;;;;;5052589;28;20000;-80
2022/06/09 07:00:20;;;;;;;;;;;16.00;99.90;;;;;;5035033;28;19917;-78
2022/06/09 07:02:47;;;;;;;;;;;16.10;99.90;;;;;;5051072;28;19928;-79
2022/06/09 07:05:13;;;;;;;;;;;16.10;99.90;;;;;;5022057;28;20374;-82
2022/06/09 07:07:39;;;;;;;;;;;16.10;99.90;;;;;;5028920;28;19931;-81
2022/06/09 07:10:05;;;;;;;;;;;16.20;99.90;;;;;;5015420;28;19950;-79
2022/06/09 07:12:31;;;;;;;;;;;16.30;99.90;;;;;;5015249;28;19960;-83
2022/06/09 07:14:56;;;;;;;;;;;16.30;99.90;;;;;;5030454;28;19956;-81
2022/06/09 07:17:22;;;;;;;;;;;16.40;99.90;;;;;;5010608;28;19921;-80
2022/06/09 07:19:48;;;;;;;;;;;16.50;99.90;;;;;;5033752;28;19916;-83
2022/06/09 07:22:13;;;;;;;;;;;16.80;99.90;;;;;;4993399;28;19921;-81
2022/06/09 07:24:39;;;;;;;;;;;16.80;99.90;;;;;;5013737;28;19923;-79
2022/06/09 07:27:05;;;;;;;;;;;16.90;99.90;;;;;;5015806;28;19925;-80
2022/06/09 07:29:32;;;;;;;;;;;17.00;99.90;;;;;;5031395;28;19928;-81
2022/06/09 07:31:58;;;;;;;;;;;17.10;99.90;;;;;;5021139;28;20396;-78
2022/06/09 07:34:26;;;;;;;;;;;17.00;99.90;;;;;;5022165;28;20290;-79
2022/06/09 07:36:52;;;;;;;;;;;17.00;99.90;;;;;;5012149;28;19924;-78
2022/06/09 07:39:20;;;;;;;;;;;17.10;99.90;;;;;;4998676;28;20358;-82
2022/06/09 07:41:46;;;;;;;;;;;17.20;99.90;;;;;;5016060;28;20014;-78
2022/06/09 07:44:12;;;;;;;;;;;17.30;99.90;;;;;;5038674;28;19916;-82
2022/06/09 07:46:39;;;;;;;;;;;17.30;99.90;;;;;;5024589;28;20276;-81
2022/06/09 07:49:05;;;;;;;;;;;17.30;99.90;;;;;;5021330;28;19925;-81
2022/06/09 07:51:34;;;;;;;;;;;17.40;99.90;;;;;;5035040;28;20004;-80
2022/06/09 07:53:59;;;;;;;;;;;17.40;99.90;;;;;;5036663;28;19917;-77
2022/06/09 07:56:25;;;;;;;;;;;17.40;99.90;;;;;;5057650;28;20313;-79
2022/06/09 07:58:51;;;;;;;;;;;17.40;99.90;;;;;;5018733;28;19917;-81
2022/06/09 08:01:18;;;;;;;;;;;17.40;99.90;;;;;;5023788;28;19943;-82
2022/06/09 08:03:44;;;;;;;;;;;17.50;99.90;;;;;;5037222;28;20396;-82
2022/06/09 08:06:10;;;;;;;;;;;17.60;99.90;;;;;;5019787;28;19921;-80
2022/06/09 08:08:36;;;;;;;;;;;17.70;99.90;;;;;;5027287;28;19974;-83
2022/06/09 08:11:01;;;;;;;;;;;17.80;99.90;;;;;;5016668;28;19921;-80
2022/06/09 08:13:27;;;;;;;;;;;17.80;99.90;;;;;;5050814;28;19966;-81
2022/06/09 08:15:53;;;;;;;;;;;17.80;99.90;;;;;;5018048;28;19924;-81
2022/06/09 08:18:19;;;;;;;;;;;17.90;99.90;;;;;;5034284;28;20418;-82
2022/06/09 08:20:45;;;;;;;;;;;18.00;99.90;;;;;;5050790;28;20039;-82
2022/06/09 08:23:13;;;;;;;;;;;18.00;99.90;;;;;;5042990;28;20223;-81
2022/06/09 08:25:39;;;;;;;;;;;18.10;99.90;;;;;;5025183;28;19921;-79
2022/06/09 08:28:05;;;;;;;;;;;18.10;99.90;;;;;;5011719;28;20373;-83
2022/06/09 08:30:33;;;;;;;;;;;18.10;99.90;;;;;;5036458;28;19923;-83
2022/06/09 08:32:59;;;;;;;;;;;18.20;99.90;;;;;;5016093;28;20464;-79
2022/06/09 08:35:25;;;;;;;;;;;18.10;99.90;;;;;;5018602;28;19917;-82
2022/06/09 08:37:51;;;;;;;;;;;18.10;99.90;;;;;;5031405;28;19975;-82
2022/06/09 08:40:23;;;;;;;;;;;18.30;99.90;;;;;;5041921;28;19917;-79
2022/06/09 08:42:58;;;;;;;;;;;18.50;99.90;;;;;;5027304;28;20396;-80
2022/06/09 08:45:42;;;;;;;;;;;18.60;99.90;;;;;;5018133;28;19920;-81
2022/06/09 08:48:13;;;;;;;;;;;18.60;99.90;;;;;;5035555;28;20004;-82
2022/06/09 08:50:43;;;;;;;;;;;18.60;99.90;;;;;;5008859;28;19923;-81
2022/06/09 08:53:12;;;;;;;;;;;18.60;99.90;;;;;;4987445;28;19924;-80
2022/06/09 08:55:49;;;;;;;;;;;18.60;99.90;;;;;;5017017;28;19917;-79
2022/06/09 08:58:15;;;;;;;;;;;18.80;99.90;;;;;;5005384;28;19924;-81
2022/06/09 09:00:46;;;;;;;;;;;18.80;99.90;;;;;;5063612;28;19917;-82
2022/06/09 09:03:16;;;;;;;;;;;18.70;99.90;;;;;;5023809;28;19917;-81
2022/06/09 09:05:45;;;;;;;;;;;18.70;99.90;;;;;;5021321;28;19917;-81
2022/06/09 09:08:11;;;;;;;;;;;18.70;99.90;;;;;;5036136;28;19917;-82
2022/06/09 09:10:46;;;;;;;;;;;18.60;99.90;;;;;;5006897;28;20002;-81
2022/06/09 09:13:35;;;;;;;;;;;18.60;99.90;;;;;;5021036;28;19917;-81
2022/06/09 09:16:17;;;;;;;;;;;18.80;99.90;;;;;;5008305;28;19917;-80
2022/06/09 09:18:52;;;;;;;;;;;19.00;99.90;;;;;;5026577;28;19972;-79
2022/06/09 09:21:23;;;;;;;;;;;19.20;99.90;;;;;;5035502;28;19916;-78
2022/06/09 09:23:52;;;;;;;;;;;19.30;99.90;;;;;;5024582;28;19916;-84
2022/06/09 09:26:36;;;;;;;;;;;19.20;99.90;;;;;;5032959;28;19975;-79
2022/06/09 09:29:07;;;;;;;;;;;19.20;99.90;;;;;;5030230;28;19960;-79
2022/06/09 09:31:41;;;;;;;;;;;19.20;99.90;;;;;;5040468;28;19916;-81
2022/06/09 09:34:12;;;;;;;;;;;19.10;99.90;;;;;;5034768;28;19970;-81
2022/06/09 09:36:39;;;;;;;;;;;19.30;99.90;;;;;;5004425;28;19920;-82
2022/06/09 09:39:15;;;;;;;;;;;19.30;99.90;;;;;;5016422;28;19917;-82
2022/06/09 09:41:41;;;;;;;;;;;19.30;99.90;;;;;;5022160;28;19967;-79
2022/06/09 09:44:12;;;;;;;;;;;19.40;99.90;;;;;;5056160;28;20369;-79
2022/06/09 09:46:40;;;;;;;;;;;19.40;99.90;;;;;;5034478;28;19921;-80
2022/06/09 09:49:15;;;;;;;;;;;19.50;99.90;;;;;;5031989;28;20000;-78
2022/06/09 09:51:42;;;;;;;;;;;19.40;99.90;;;;;;5038776;28;19967;-82
2022/06/09 09:54:28;;;;;;;;;;;19.60;99.90;;;;;;5036390;28;19960;-81
2022/06/09 09:57:12;;;;;;;;;;;19.70;99.90;;;;;;5008883;28;19921;-82
2022/06/09 09:59:44;;;;;;;;;;;20.00;99.90;;;;;;5045773;28;19925;-81
2022/06/09 10:10:59;;;;;;;;;;;20.40;99.90;;;;;;5022176;28;19925;-82
2022/06/09 10:13:32;;;;;;;;;;;20.30;99.90;;;;;;5021751;28;19999;-82
2022/06/09 10:16:00;;;;;;;;;;;20.10;99.90;;;;;;5022547;28;19947;-82
2022/06/09 10:18:28;;;;;;;;;;;19.90;99.90;;;;;;5037186;28;19943;-82
2022/06/09 10:21:02;;;;;;;;;;;19.90;99.90;;;;;;5061145;28;19964;-79
2022/06/09 10:23:42;;;;;;;;;;;20.00;99.90;;;;;;5012271;28;19928;-81
2022/06/09 10:26:11;;;;;;;;;;;20.10;99.90;;;;;;5049045;28;19968;-79
2022/06/09 10:28:40;;;;;;;;;;;20.00;99.90;;;;;;5023700;28;19963;-80
2022/06/09 10:31:18;;;;;;;;;;;19.90;99.90;;;;;;5017855;28;20392;-81
2022/06/09 10:33:51;;;;;;;;;;;19.90;99.90;;;;;;4985904;28;19943;-84
2022/06/09 10:36:20;;;;;;;;;;;20.00;99.90;;;;;;5034511;28;19949;-82
2022/06/09 10:39:09;;;;;;;;;;;20.20;99.90;;;;;;5027630;28;20442;-82
2022/06/09 10:41:47;;;;;;;;;;;20.30;99.90;;;;;;5015740;28;19921;-82
2022/06/09 10:44:29;;;;;;;;;;;20.30;99.90;;;;;;5010891;28;20113;-82
2022/06/09 10:55:24;;;;;;;;;;;20.00;99.90;;;;;;5049679;28;19917;-81
2022/06/09 10:58:15;;;;;;;;;;;20.00;99.90;;;;;;5026772;28;20325;-85
2022/06/09 11:00:45;;;;;;;;;;;19.90;99.90;;;;;;5016348;28;19924;-79
2022/06/09 11:03:15;;;;;;;;;;;19.80;99.90;;;;;;5035096;28;19916;-79
2022/06/09 11:05:41;;;;;;;;;;;19.90;99.90;;;;;;5016925;28;19924;-79
2022/06/09 11:08:18;;;;;;;;;;;19.90;99.90;;;;;;5018056;28;19917;-83
2022/06/09 11:10:53;;;;;;;;;;;19.80;99.90;;;;;;5014530;28;20378;-82
2022/06/09 11:13:18;;;;;;;;;;;19.70;99.90;;;;;;5015096;28;19924;-81
2022/06/09 11:15:56;;;;;;;;;;;19.70;99.90;;;;;;5001435;28;19963;-82
2022/06/09 11:18:22;;;;;;;;;;;19.60;99.90;;;;;;5018602;28;20026;-81
2022/06/09 11:20:58;;;;;;;;;;;19.80;99.90;;;;;;5019584;28;20028;-81
2022/06/09 11:23:27;;;;;;;;;;;20.10;99.90;;;;;;5014991;28;19969;-79
2022/06/09 11:26:02;;;;;;;;;;;20.10;99.90;;;;;;5020658;28;19921;-80
2022/06/09 11:28:31;;;;;;;;;;;19.90;99.90;;;;;;5064957;28;19969;-82
2022/06/09 11:31:00;;;;;;;;;;;19.90;99.90;;;;;;5033672;28;19940;-81
2022/06/09 11:33:29;;;;;;;;;;;20.00;99.90;;;;;;5057729;28;19943;-83
2022/06/09 11:36:20;;;;;;;;;;;20.10;99.90;;;;;;5040161;28;19967;-80
2022/06/09 11:39:00;;;;;;;;;;;20.40;99.90;;;;;;4998561;28;19916;-80
2022/06/09 11:41:47;;;;;;;;;;;20.60;99.90;;;;;;5038513;28;19971;-80
2022/06/09 11:44:21;;;;;;;;;;;20.40;99.90;;;;;;5023585;28;19990;-81
2022/06/09 11:46:49;;;;;;;;;;;20.20;99.90;;;;;;5002028;28;20007;-82
2022/06/09 11:49:39;;;;;;;;;;;20.10;99.90;;;;;;5008787;28;19921;-78
2022/06/09 11:52:06;;;;;;;;;;;20.10;99.90;;;;;;5022228;28;19932;-80
2022/06/09 11:54:43;;;;;;;;;;;20.00;99.90;;;;;;5056623;28;19952;-83
2022/06/09 11:57:21;;;;;;;;;;;19.90;99.90;;;;;;5019773;28;19921;-78
2022/06/09 11:59:52;;;;;;;;;;;20.00;99.90;;;;;;5027974;28;20313;-84
2022/06/09 12:02:33;;;;;;;;;;;20.10;99.90;;;;;;5011449;28;19940;-80
2022/06/09 12:05:13;;;;;;;;;;;20.10;99.90;;;;;;5012548;28;19917;-82
2022/06/09 12:07:42;;;;;;;;;;;19.90;99.90;;;;;;5064668;28;20011;-80
2022/06/09 12:10:28;;;;;;;;;;;20.10;99.90;;;;;;5026180;28;19917;-81
2022/06/09 12:13:05;;;;;;;;;;;20.40;99.90;;;;;;5052811;28;19927;-82
2022/06/09 12:15:32;;;;;;;;;;;20.50;99.90;;;;;;5011008;28;20267;-83
2022/06/09 12:17:58;;;;;;;;;;;20.50;99.90;;;;;;5035867;28;20401;-86
2022/06/09 12:20:27;;;;;;;;;;;20.60;99.90;;;;;;5037327;28;20051;-82
2022/06/09 12:23:04;;;;;;;;;;;20.50;99.90;;;;;;5038865;28;19917;-83
2022/06/09 12:25:33;;;;;;;;;;;20.60;99.90;;;;;;5018288;28;19939;-84
2022/06/09 12:27:59;;;;;;;;;;;20.70;99.90;;;;;;5004155;28;19925;-80
2022/06/09 12:30:33;;;;;;;;;;;20.90;99.90;;;;;;5021736;28;19920;-80
2022/06/09 12:33:11;;;;;;;;;;;21.00;99.90;;;;;;5021601;28;19924;-80
2022/06/09 12:35:40;;;;;;;;;;;21.20;99.90;;;;;;5021023;28;20435;-82
2022/06/09 12:38:18;;;;;;;;;;;21.10;99.90;;;;;;5004312;28;19920;-80
2022/06/09 12:40:46;;;;;;;;;;;21.20;99.90;;;;;;5028925;28;19924;-82
2022/06/09 12:43:21;;;;;;;;;;;21.30;99.90;;;;;;5076312;28;19944;-85
2022/06/09 12:45:58;;;;;;;;;;;21.30;99.90;;;;;;5016428;28;20113;-84
2022/06/09 12:48:27;;;;;;;;;;;21.30;99.90;;;;;;5028263;28;19995;-83
2022/06/09 12:50:52;;;;;;;;;;;21.30;99.90;;;;;;5033759;28;20394;-83
2022/06/09 12:53:23;;;;;;;;;;;21.50;99.90;;;;;;5055465;28;19964;-82
2022/06/09 12:55:56;;;;;;;;;;;21.80;99.90;;;;;;5012481;28;19974;-81
2022/06/09 12:58:26;;;;;;;;;;;21.90;99.90;;;;;;5028469;28;19924;-79
2022/06/09 13:00:59;;;;;;;;;;;21.80;99.90;;;;;;5018907;28;19967;-81
2022/06/09 13:03:29;;;;;;;;;;;21.40;99.90;;;;;;5036799;28;19928;-84
2022/06/09 13:05:56;;;;;;;;;;;21.30;99.90;;;;;;5020792;28;19921;-81
2022/06/09 13:08:24;;;;;;;;;;;21.20;99.90;;;;;;5017499;28;20332;-80
2022/06/09 13:10:55;;;;;;;;;;;21.30;99.90;;;;;;5018357;28;19980;-83
2022/06/09 13:13:21;;;;;;;;;;;21.70;99.90;;;;;;5062716;28;19921;-80
2022/06/09 13:16:00;;;;;;;;;;;21.80;99.90;;;;;;5062501;28;19970;-83
2022/06/09 13:18:35;;;;;;;;;;;22.20;99.90;;;;;;5049780;28;20011;-84
2022/06/09 13:21:11;;;;;;;;;;;22.20;99.90;;;;;;5063402;28;20019;-81
2022/06/09 13:23:37;;;;;;;;;;;22.00;99.90;;;;;;5026258;28;20246;-83
2022/06/09 13:26:05;;;;;;;;;;;22.10;99.90;;;;;;5021957;28;19951;-82
2022/06/09 13:28:43;;;;;;;;;;;22.30;99.90;;;;;;5050354;28;19917;-79
2022/06/09 13:31:27;;;;;;;;;;;22.50;99.90;;;;;;5033078;28;19920;-82
2022/06/09 13:34:04;;;;;;;;;;;22.60;99.90;;;;;;5026059;28;19921;-82
2022/06/09 13:36:32;;;;;;;;;;;22.70;99.90;;;;;;5045211;28;20003;-79
2022/06/09 13:39:18;;;;;;;;;;;22.60;99.90;;;;;;4991065;28;20358;-86
2022/06/09 13:41:43;;;;;;;;;;;22.50;99.90;;;;;;5050015;28;19998;-83
2022/06/09 13:44:14;;;;;;;;;;;22.60;99.90;;;;;;5008483;28;20366;-83
2022/06/09 13:46:59;;;;;;;;;;;22.60;99.90;;;;;;5018482;28;20263;-77
2022/06/09 13:49:26;;;;;;;;;;;22.70;99.90;;;;;;5012600;28;19978;-78
2022/06/09 13:51:52;;;;;;;;;;;22.60;99.90;;;;;;5030290;28;19920;-85
2022/06/09 13:54:18;;;;;;;;;;;22.70;99.90;;;;;;5004192;28;19928;-81
2022/06/09 13:56:44;;;;;;;;;;;22.80;99.90;;;;;;5052460;28;19953;-82
2022/06/09 13:59:10;;;;;;;;;;;22.90;99.90;;;;;;5018992;28;19917;-81
2022/06/09 14:01:36;;;;;;;;;;;22.70;99.90;;;;;;5022720;28;19963;-81
2022/06/09 14:04:02;;;;;;;;;;;22.50;99.90;;;;;;5018382;28;20345;-83
2022/06/09 14:06:27;;;;;;;;;;;22.40;99.90;;;;;;5020799;28;19979;-82
2022/06/09 14:08:55;;;;;;;;;;;22.40;99.90;;;;;;5039870;28;19965;-81
2022/06/09 14:11:25;;;;;;;;;;;22.80;99.90;;;;;;5052758;28;19971;-80
2022/06/09 14:13:53;;;;;;;;;;;22.90;99.90;;;;;;5000395;28;19997;-82
2022/06/09 14:16:46;;;;;;;;;;;22.90;99.90;;;;;;4999703;28;19932;-82
2022/06/09 14:19:13;;;;;;;;;;;23.10;99.90;;;;;;5003555;28;19917;-78
2022/06/09 14:21:39;;;;;;;;;;;23.40;99.90;;;;;;5000118;28;19917;-79
2022/06/09 14:24:12;;;;;;;;;;;23.60;99.90;;;;;;5041336;28;20016;-84
2022/06/09 14:26:37;;;;;;;;;;;23.60;99.90;;;;;;5019040;28;19920;-82
2022/06/09 14:29:04;;;;;;;;;;;23.80;99.90;;;;;;5018532;28;19924;-81
2022/06/09 14:31:30;;;;;;;;;;;23.90;99.60;;;;;;5020203;28;20274;-80
2022/06/09 14:33:56;;;;;;;;;;;24.10;99.70;;;;;;5017630;28;19917;-78
2022/06/09 14:36:25;;;;;;;;;;;24.10;97.00;;;;;;5048925;28;19922;-83
2022/06/09 14:38:51;;;;;;;;;;;24.00;97.90;;;;;;5035412;28;20266;-81
2022/06/09 14:41:18;;;;;;;;;;;24.10;98.10;;;;;;5067458;28;20347;-81
2022/06/09 14:43:44;;;;;;;;;;;24.10;99.30;;;;;;5051747;28;19925;-79
2022/06/09 14:46:14;;;;;;;;;;;23.80;96.80;;;;;;5017673;28;20267;-78
2022/06/09 14:48:40;;;;;;;;;;;23.40;97.60;;;;;;5041614;28;19921;-78
2022/06/09 14:51:08;;;;;;;;;;;22.80;98.70;;;;;;5020606;28;20368;-81